createdAt,value
2023-05-24T00:01:07.645Z,15.10
2023-05-24T00:03:39.585Z,15.10
2023-05-24T00:06:09.689Z,15.10
2023-05-24T00:08:37.906Z,15.10
2023-05-24T00:11:06.292Z,15.00
2023-05-24T00:13:34.711Z,15.00
2023-05-24T00:16:03.178Z,15.00
2023-05-24T00:18:32.065Z,15.00
2023-05-24T00:21:00.446Z,15.00
2023-05-24T00:23:30.152Z,15.00
2023-05-24T00:25:58.317Z,15.00
2023-05-24T00:28:26.601Z,15.00
2023-05-24T00:30:54.939Z,15.00
2023-05-24T00:33:23.456Z,15.00
2023-05-24T00:35:56.319Z,15.00
2023-05-24T00:38:24.750Z,15.00
2023-05-24T00:40:57.434Z,15.00
2023-05-24T00:43:25.787Z,15.00
2023-05-24T00:46:11.959Z,14.90
2023-05-24T00:48:40.240Z,14.90
2023-05-24T00:51:08.568Z,14.90
2023-05-24T00:53:39.863Z,14.80
2023-05-24T00:56:10.213Z,14.80
2023-05-24T00:58:39.158Z,14.80
2023-05-24T01:01:08.476Z,14.80
2023-05-24T01:03:37.498Z,14.80
2023-05-24T01:06:07.973Z,14.70
2023-05-24T01:08:49.175Z,14.80
2023-05-24T01:11:27.659Z,14.70
2023-05-24T01:14:04.510Z,14.70
2023-05-24T01:16:41.854Z,14.70
2023-05-24T01:19:27.240Z,14.80
2023-05-24T01:22:09.392Z,14.80
2023-05-24T01:24:53.728Z,14.80
2023-05-24T01:27:25.084Z,14.90
2023-05-24T01:29:54.395Z,14.90
2023-05-24T01:32:22.990Z,14.90
2023-05-24T01:34:51.487Z,14.80
2023-05-24T01:37:20.111Z,14.90
2023-05-24T01:39:48.640Z,14.90
2023-05-24T01:42:25.316Z,14.90
2023-05-24T01:45:02.804Z,14.90
2023-05-24T01:47:41.041Z,14.90
2023-05-24T01:50:17.639Z,14.80
2023-05-24T01:52:47.788Z,14.80
2023-05-24T01:55:18.668Z,14.70
2023-05-24T01:57:51.722Z,14.70
2023-05-24T02:00:21.409Z,14.70
2023-05-24T02:02:49.974Z,14.70
2023-05-24T02:05:19.323Z,14.70
2023-05-24T02:07:47.549Z,14.70
2023-05-24T02:10:15.857Z,14.70
2023-05-24T02:12:44.045Z,14.70
2023-05-24T02:15:15.062Z,14.70
2023-05-24T02:17:44.355Z,14.70
2023-05-24T02:20:14.163Z,14.70
2023-05-24T02:22:42.451Z,14.70
2023-05-24T02:25:10.978Z,14.70
2023-05-24T02:27:39.293Z,14.60
2023-05-24T02:30:08.891Z,14.70
2023-05-24T02:32:38.574Z,14.60
2023-05-24T02:35:07.717Z,14.60
2023-05-24T02:37:36.523Z,14.50
2023-05-24T02:40:05.467Z,14.50
2023-05-24T02:42:33.826Z,14.50
2023-05-24T02:45:02.279Z,14.50
2023-05-24T02:47:30.669Z,14.40
2023-05-24T02:50:00.229Z,14.40
2023-05-24T02:52:28.483Z,14.40
2023-05-24T02:54:56.747Z,14.30
2023-05-24T02:57:25.123Z,14.30
2023-05-24T02:59:53.286Z,14.20
2023-05-24T03:02:22.123Z,14.20
2023-05-24T03:04:50.284Z,14.10
2023-05-24T03:07:20.281Z,14.00
2023-05-24T03:09:48.890Z,14.00
2023-05-24T03:12:17.440Z,13.90
2023-05-24T03:14:45.775Z,13.90
2023-05-24T03:17:13.961Z,13.80
2023-05-24T03:19:42.204Z,13.80
2023-05-24T03:22:10.494Z,13.80
2023-05-24T03:24:40.432Z,13.70
2023-05-24T03:27:09.746Z,13.70
2023-05-24T03:29:38.067Z,13.70
2023-05-24T03:32:06.908Z,13.70
2023-05-24T03:34:35.348Z,13.70
2023-05-24T03:37:04.079Z,13.60
2023-05-24T03:39:32.359Z,13.70
2023-05-24T03:42:29.869Z,13.60
2023-05-24T03:44:58.420Z,13.60
2023-05-24T03:47:26.741Z,13.60
2023-05-24T03:49:55.197Z,13.60
2023-05-24T03:52:23.606Z,13.60
2023-05-24T03:54:51.870Z,13.60
2023-05-24T03:57:20.138Z,13.60
2023-05-24T03:59:50.151Z,13.60
2023-05-24T04:02:18.475Z,13.70
2023-05-24T04:04:47.006Z,13.70
2023-05-24T04:07:16.452Z,13.70
2023-05-24T04:09:45.150Z,13.70
2023-05-24T04:12:13.405Z,13.70
2023-05-24T04:14:43.497Z,13.70
2023-05-24T04:17:13.530Z,13.70
2023-05-24T04:19:42.304Z,13.60
2023-05-24T04:22:10.780Z,13.60
2023-05-24T04:24:39.102Z,13.60
2023-05-24T04:27:08.126Z,13.70
2023-05-24T04:29:36.418Z,13.70
2023-05-24T04:32:04.666Z,13.70
2023-05-24T04:34:35.688Z,13.70
2023-05-24T04:37:04.782Z,13.70
2023-05-24T04:39:32.935Z,13.60
2023-05-24T04:42:01.183Z,13.60
2023-05-24T04:44:29.377Z,13.50
2023-05-24T04:46:57.854Z,13.50
2023-05-24T04:49:26.228Z,13.50
2023-05-24T04:51:56.026Z,13.50
2023-05-24T04:54:25.176Z,13.40
2023-05-24T04:56:53.489Z,13.40
2023-05-24T04:59:22.093Z,13.40
2023-05-24T05:01:50.724Z,13.30
2023-05-24T05:04:19.113Z,13.30
2023-05-24T05:06:48.795Z,13.30
2023-05-24T05:09:19.041Z,13.20
2023-05-24T05:11:48.500Z,13.30
2023-05-24T05:14:17.499Z,13.20
2023-05-24T05:16:46.511Z,13.10
2023-05-24T05:19:15.041Z,13.10
2023-05-24T05:21:43.212Z,13.10
2023-05-24T05:24:11.499Z,13.10
2023-05-24T05:26:41.825Z,13.10
2023-05-24T05:29:09.987Z,13.00
2023-05-24T05:31:39.731Z,13.00
2023-05-24T05:34:09.836Z,13.10
2023-05-24T05:36:40.862Z,13.10
2023-05-24T05:39:10.642Z,13.00
2023-05-24T05:41:45.777Z,13.10
2023-05-24T05:44:14.911Z,13.10
2023-05-24T05:46:46.140Z,13.10
2023-05-24T05:49:15.411Z,13.10
2023-05-24T05:51:44.007Z,13.00
2023-05-24T05:54:15.522Z,13.00
2023-05-24T05:56:48.033Z,13.00
2023-05-24T05:59:17.056Z,13.00
2023-05-24T06:01:47.698Z,12.90
2023-05-24T06:04:16.405Z,12.90
2023-05-24T06:06:45.605Z,12.90
2023-05-24T06:09:14.191Z,12.90
2023-05-24T06:11:44.904Z,12.90
2023-05-24T06:14:19.901Z,12.90
2023-05-24T06:16:48.510Z,12.90
2023-05-24T06:19:17.193Z,12.90
2023-05-24T06:21:48.287Z,12.80
2023-05-24T06:24:20.595Z,12.80
2023-05-24T06:26:49.318Z,12.80
2023-05-24T06:29:20.562Z,12.80
2023-05-24T06:31:49.843Z,12.80
2023-05-24T06:34:21.302Z,12.80
2023-05-24T06:36:51.313Z,12.90
2023-05-24T06:39:20.944Z,12.90
2023-05-24T06:41:51.336Z,12.90
2023-05-24T06:44:33.998Z,12.90
2023-05-24T06:47:03.271Z,13.00
2023-05-24T06:49:31.736Z,13.00
2023-05-24T06:52:00.034Z,13.00
2023-05-24T06:54:28.497Z,13.00
2023-05-24T06:56:56.946Z,13.00
2023-05-24T06:59:27.321Z,13.00
2023-05-24T07:01:58.950Z,13.00
2023-05-24T07:04:29.317Z,12.90
2023-05-24T07:06:58.505Z,12.90
2023-05-24T07:09:26.931Z,12.90
2023-05-24T07:11:55.373Z,12.90
2023-05-24T07:14:26.141Z,12.90
2023-05-24T07:16:57.660Z,13.00
2023-05-24T07:19:29.571Z,13.00
2023-05-24T07:21:58.115Z,13.00
2023-05-24T07:24:26.597Z,13.00
2023-05-24T07:26:56.694Z,13.00
2023-05-24T07:29:25.910Z,13.00
2023-05-24T07:31:58.185Z,13.00
2023-05-24T07:34:30.373Z,12.90
2023-05-24T07:37:00.787Z,13.00
2023-05-24T07:39:29.557Z,12.90
2023-05-24T07:41:58.075Z,12.90
2023-05-24T07:44:27.207Z,13.00
2023-05-24T07:46:57.268Z,13.00
2023-05-24T07:49:25.486Z,13.00
2023-05-24T07:51:56.988Z,13.00
2023-05-24T07:54:25.414Z,13.00
2023-05-24T07:56:53.771Z,13.00
2023-05-24T07:59:23.038Z,13.00
2023-05-24T08:01:52.904Z,13.00
2023-05-24T08:04:23.981Z,13.00
2023-05-24T08:06:52.264Z,13.00
2023-05-24T08:09:20.531Z,13.00
2023-05-24T08:11:48.937Z,13.00
2023-05-24T08:14:17.302Z,13.00
2023-05-24T08:16:45.497Z,13.00
2023-05-24T08:19:13.840Z,13.00
2023-05-24T08:21:43.772Z,13.00
2023-05-24T08:24:12.118Z,13.00
2023-05-24T08:26:40.520Z,13.00
2023-05-24T08:29:08.876Z,13.00
2023-05-24T08:31:38.311Z,13.00
2023-05-24T08:34:07.306Z,13.00
2023-05-24T08:36:35.622Z,13.00
2023-05-24T08:39:06.896Z,13.00
2023-05-24T08:41:37.739Z,13.00
2023-05-24T08:44:07.543Z,13.10
2023-05-24T08:46:37.084Z,13.10
2023-05-24T08:49:07.651Z,13.10
2023-05-24T08:51:38.686Z,13.10
2023-05-24T08:54:09.884Z,13.20
2023-05-24T08:56:39.803Z,13.20
2023-05-24T08:59:08.539Z,13.30
2023-05-24T09:01:41.269Z,13.30
2023-05-24T09:04:11.080Z,13.40
2023-05-24T09:06:39.504Z,13.30
2023-05-24T09:09:11.527Z,13.40
2023-05-24T09:11:41.113Z,13.40
2023-05-24T09:14:09.584Z,13.40
2023-05-24T09:16:38.353Z,13.50
2023-05-24T09:19:07.005Z,13.50
2023-05-24T09:21:35.649Z,13.60
2023-05-24T09:24:04.055Z,13.60
2023-05-24T09:26:33.884Z,13.60
2023-05-24T09:29:02.250Z,13.70
2023-05-24T09:31:35.188Z,13.70
2023-05-24T09:34:04.093Z,13.70
2023-05-24T09:36:34.251Z,13.80
2023-05-24T09:39:10.767Z,13.80
2023-05-24T09:41:44.497Z,13.70
2023-05-24T09:44:15.966Z,13.70
2023-05-24T09:46:44.271Z,13.70
2023-05-24T09:49:12.574Z,13.70
2023-05-24T09:51:40.803Z,13.80
2023-05-24T09:54:10.523Z,13.80
2023-05-24T09:56:43.129Z,13.80
2023-05-24T09:59:11.369Z,13.90
2023-05-24T10:01:39.764Z,13.90
2023-05-24T10:04:10.204Z,13.90
2023-05-24T10:06:39.214Z,14.00
2023-05-24T10:09:07.994Z,14.00
2023-05-24T10:11:38.060Z,14.00
2023-05-24T10:14:10.365Z,14.10
2023-05-24T10:16:39.099Z,14.20
2023-05-24T10:19:08.354Z,14.10
2023-05-24T10:21:41.311Z,14.20
2023-05-24T10:24:12.689Z,14.20
2023-05-24T10:26:42.616Z,14.30
2023-05-24T10:29:23.419Z,14.30
2023-05-24T10:31:54.396Z,14.40
2023-05-24T10:34:23.199Z,14.40
2023-05-24T10:36:52.165Z,14.40
2023-05-24T10:39:23.195Z,14.40
2023-05-24T10:41:51.727Z,14.50
2023-05-24T10:44:22.696Z,14.50
2023-05-24T10:47:11.030Z,14.40
2023-05-24T10:49:40.046Z,14.50
2023-05-24T10:52:12.575Z,14.50
2023-05-24T10:54:49.721Z,14.50
2023-05-24T10:57:25.922Z,14.50
2023-05-24T10:59:58.657Z,14.50
2023-05-24T11:02:36.169Z,14.50
2023-05-24T11:05:07.569Z,14.40
2023-05-24T11:07:43.030Z,14.40
2023-05-24T11:10:15.233Z,14.40
2023-05-24T11:12:45.040Z,14.40
2023-05-24T11:15:25.211Z,14.40
2023-05-24T11:18:15.570Z,14.50
2023-05-24T11:20:44.716Z,14.50
2023-05-24T11:23:13.224Z,14.50
2023-05-24T11:25:41.940Z,14.60
2023-05-24T11:28:12.368Z,14.60
2023-05-24T11:30:43.113Z,14.80
2023-05-24T11:33:18.999Z,14.90
2023-05-24T11:35:47.575Z,15.00
2023-05-24T11:38:16.668Z,15.00
2023-05-24T11:40:46.187Z,15.20
2023-05-24T11:43:16.766Z,15.30
2023-05-24T11:45:50.873Z,15.30
2023-05-24T11:48:21.299Z,15.40
2023-05-24T11:50:50.555Z,15.40
2023-05-24T11:53:21.625Z,15.50
2023-05-24T11:55:51.533Z,15.50
2023-05-24T11:58:24.618Z,15.50
2023-05-24T12:00:54.327Z,15.60
2023-05-24T12:03:23.355Z,15.60
2023-05-24T12:05:52.911Z,15.70
2023-05-24T12:08:21.372Z,15.80
2023-05-24T12:10:51.818Z,15.90
2023-05-24T12:13:23.215Z,15.90
2023-05-24T12:15:56.491Z,15.90
2023-05-24T12:18:26.871Z,16.00
2023-05-24T12:20:55.635Z,16.10
2023-05-24T12:23:25.820Z,16.10
2023-05-24T12:25:59.477Z,16.10
2023-05-24T12:28:28.564Z,16.40
2023-05-24T12:30:59.233Z,16.40
2023-05-24T12:33:27.476Z,16.40
2023-05-24T12:35:56.469Z,16.50
2023-05-24T12:38:26.223Z,16.50
2023-05-24T12:41:11.401Z,16.50
2023-05-24T12:43:41.669Z,16.50
2023-05-24T12:46:11.397Z,16.60
2023-05-24T12:48:39.573Z,16.60
2023-05-24T12:51:08.618Z,16.50
2023-05-24T12:53:36.998Z,16.50
2023-05-24T12:56:05.438Z,16.50
2023-05-24T12:58:33.615Z,16.50
2023-05-24T13:01:01.888Z,16.50
2023-05-24T13:03:31.653Z,16.70
2023-05-24T13:06:00.719Z,16.80
2023-05-24T13:08:30.145Z,16.90
2023-05-24T13:10:58.398Z,16.90
2023-05-24T13:13:26.646Z,17.00
2023-05-24T13:15:55.128Z,17.00
2023-05-24T13:18:23.730Z,17.10
2023-05-24T13:20:53.662Z,17.10
2023-05-24T13:23:22.027Z,17.10
2023-05-24T13:25:50.943Z,17.20
2023-05-24T13:28:19.215Z,17.10
2023-05-24T13:30:48.876Z,17.10
2023-05-24T13:33:17.354Z,17.10
2023-05-24T13:35:45.850Z,17.20
2023-05-24T13:38:15.653Z,17.10
2023-05-24T13:40:44.709Z,17.10
2023-05-24T13:43:13.107Z,17.20
2023-05-24T13:45:41.371Z,17.20
2023-05-24T13:48:09.890Z,17.20
2023-05-24T13:50:39.365Z,17.30
2023-05-24T13:53:08.203Z,17.20
2023-05-24T13:55:38.799Z,17.30
2023-05-24T13:58:07.325Z,17.30
2023-05-24T14:00:36.196Z,17.30
2023-05-24T14:03:06.003Z,17.30
2023-05-24T14:05:34.358Z,17.30
2023-05-24T14:08:06.676Z,17.40
2023-05-24T14:10:36.775Z,17.40
2023-05-24T14:15:38.049Z,17.40
2023-05-24T14:18:08.661Z,17.40
2023-05-24T14:20:38.161Z,17.40
2023-05-24T14:23:08.225Z,17.40
2023-05-24T14:25:36.815Z,17.50
2023-05-24T14:28:08.621Z,17.50
2023-05-24T14:30:38.766Z,17.50
2023-05-24T14:33:08.600Z,17.50
2023-05-24T14:35:39.881Z,17.50
2023-05-24T14:38:09.546Z,17.60
2023-05-24T14:40:40.117Z,17.50
2023-05-24T14:43:11.405Z,17.50
2023-05-24T14:45:41.752Z,17.50
2023-05-24T14:48:12.435Z,17.60
2023-05-24T14:50:41.780Z,17.50
2023-05-24T14:53:12.362Z,17.50
2023-05-24T14:55:43.366Z,17.50
2023-05-24T14:58:14.392Z,17.50
2023-05-24T15:00:43.994Z,17.50
2023-05-24T15:03:14.551Z,17.50
2023-05-24T15:05:43.848Z,17.50
2023-05-24T15:08:12.346Z,17.50
2023-05-24T15:10:41.237Z,17.50
2023-05-24T15:13:09.704Z,17.60
2023-05-24T15:15:39.387Z,17.60
2023-05-24T15:18:08.354Z,17.60
2023-05-24T15:20:36.713Z,17.60
2023-05-24T15:23:05.980Z,17.60
2023-05-24T15:25:34.258Z,17.70
2023-05-24T15:28:03.137Z,17.70
2023-05-24T15:30:31.665Z,17.70
2023-05-24T15:33:01.433Z,17.70
2023-05-24T15:35:29.665Z,17.70
2023-05-24T15:37:58.150Z,17.70
2023-05-24T15:40:26.686Z,17.60
2023-05-24T15:42:55.000Z,17.60
2023-05-24T15:45:23.587Z,17.60
2023-05-24T15:47:52.009Z,17.50
2023-05-24T15:50:31.666Z,17.50
2023-05-24T15:53:09.806Z,17.50
2023-05-24T15:55:38.999Z,17.60
2023-05-24T15:58:07.246Z,17.50
2023-05-24T16:00:35.497Z,17.60
2023-05-24T16:03:04.148Z,17.50
2023-05-24T16:05:33.843Z,17.50
2023-05-24T16:08:02.668Z,17.60
2023-05-24T16:10:30.939Z,17.60
2023-05-24T16:13:00.009Z,17.60
2023-05-24T16:15:30.098Z,17.60
2023-05-24T16:17:58.455Z,17.70
2023-05-24T16:20:26.796Z,17.70
2023-05-24T16:22:56.494Z,17.70
2023-05-24T16:25:25.822Z,17.70
2023-05-24T16:27:56.367Z,17.70
2023-05-24T16:30:25.614Z,17.70
2023-05-24T16:32:54.181Z,17.70
2023-05-24T16:35:22.626Z,17.60
2023-05-24T16:37:52.632Z,17.60
2023-05-24T16:40:22.818Z,17.60
2023-05-24T16:42:53.787Z,17.60
2023-05-24T16:45:22.441Z,17.50
2023-05-24T16:47:51.164Z,17.50
2023-05-24T16:50:20.228Z,17.50
2023-05-24T16:52:48.570Z,17.50
2023-05-24T16:55:17.137Z,17.50
2023-05-24T16:57:46.744Z,17.40
2023-05-24T17:00:16.539Z,17.50
2023-05-24T17:02:44.905Z,17.40
2023-05-24T17:05:13.236Z,17.40
2023-05-24T17:07:41.369Z,17.40
2023-05-24T17:10:10.841Z,17.40
2023-05-24T17:12:39.078Z,17.30
2023-05-24T17:15:10.082Z,17.30
2023-05-24T17:17:38.366Z,17.30
2023-05-24T17:20:07.744Z,17.30
2023-05-24T17:22:36.046Z,17.30
2023-05-24T17:25:04.475Z,17.30
2023-05-24T17:27:32.823Z,17.30
2023-05-24T17:30:01.015Z,17.30
2023-05-24T17:32:31.370Z,17.30
2023-05-24T17:35:17.232Z,17.20
2023-05-24T17:37:45.759Z,17.30
2023-05-24T17:40:14.105Z,17.20
2023-05-24T17:42:43.269Z,17.20
2023-05-24T17:45:12.402Z,17.20
2023-05-24T17:47:40.820Z,17.20
2023-05-24T17:50:10.699Z,17.10
2023-05-24T17:52:40.481Z,17.10
2023-05-24T17:55:10.714Z,17.00
2023-05-24T17:57:38.931Z,17.00
2023-05-24T18:00:08.625Z,17.00
2023-05-24T18:02:47.387Z,16.90
2023-05-24T18:05:16.669Z,16.80
2023-05-24T18:07:46.576Z,16.70
2023-05-24T18:10:14.821Z,16.70
2023-05-24T18:12:43.613Z,16.60
2023-05-24T18:15:12.738Z,16.60
2023-05-24T18:17:41.046Z,16.50
2023-05-24T18:20:10.020Z,16.50
2023-05-24T18:22:39.674Z,16.50
2023-05-24T18:25:11.150Z,16.40
2023-05-24T18:27:39.452Z,16.40
2023-05-24T18:30:09.337Z,16.30
2023-05-24T18:32:41.972Z,16.30
2023-05-24T18:35:14.705Z,16.30
2023-05-24T18:37:43.212Z,16.20
2023-05-24T18:40:14.774Z,16.20
2023-05-24T18:42:43.154Z,16.20
2023-05-24T18:45:12.090Z,16.20
2023-05-24T18:47:40.666Z,16.10
2023-05-24T18:50:09.974Z,16.10
2023-05-24T18:52:38.245Z,16.00
2023-05-24T18:55:10.880Z,16.00
2023-05-24T18:57:40.793Z,15.90
2023-05-24T19:00:10.380Z,15.90
2023-05-24T19:02:39.700Z,15.80
2023-05-24T19:05:08.490Z,15.80
2023-05-24T19:07:37.358Z,15.80
2023-05-24T19:10:06.765Z,15.70
2023-05-24T19:12:35.218Z,15.70
2023-05-24T19:15:05.377Z,15.60
2023-05-24T19:17:33.938Z,15.60
2023-05-24T19:20:02.695Z,15.50
2023-05-24T19:22:31.255Z,15.50
2023-05-24T19:24:59.567Z,15.40
2023-05-24T19:27:28.443Z,15.30
2023-05-24T19:29:59.077Z,15.30
2023-05-24T19:32:28.829Z,15.30
2023-05-24T19:34:57.338Z,15.20
2023-05-24T19:37:25.783Z,15.20
2023-05-24T19:39:54.035Z,15.10
2023-05-24T19:42:22.270Z,15.10
2023-05-24T19:44:50.903Z,15.00
2023-05-24T19:47:19.097Z,15.00
2023-05-24T19:49:48.720Z,15.00
2023-05-24T19:52:19.166Z,15.00
2023-05-24T19:54:47.452Z,14.90
2023-05-24T19:57:15.657Z,14.90
2023-05-24T19:59:44.312Z,14.90
2023-05-24T20:02:12.720Z,14.80
2023-05-24T20:04:41.991Z,14.80
2023-05-24T20:07:11.884Z,14.80
2023-05-24T20:09:41.694Z,14.80
2023-05-24T20:12:09.993Z,14.70
2023-05-24T20:14:38.236Z,14.70
2023-05-24T20:17:06.656Z,14.70
2023-05-24T20:19:34.946Z,14.60
2023-05-24T20:22:03.648Z,14.60
2023-05-24T20:24:33.667Z,14.70
2023-05-24T20:27:02.356Z,14.60
2023-05-24T20:29:30.810Z,14.60
2023-05-24T20:31:59.333Z,14.60
2023-05-24T20:34:27.725Z,14.70
2023-05-24T20:36:55.977Z,14.60
2023-05-24T20:39:24.204Z,14.60
2023-05-24T20:41:54.025Z,14.60
2023-05-24T20:44:22.184Z,14.60
2023-05-24T20:46:50.617Z,14.60
2023-05-24T20:49:19.196Z,14.50
2023-05-24T20:51:47.750Z,14.50
2023-05-24T20:54:16.066Z,14.50
2023-05-24T20:56:44.539Z,14.50
2023-05-24T20:59:14.104Z,14.50
2023-05-24T21:01:42.602Z,14.50
2023-05-24T21:04:11.210Z,14.40
2023-05-24T21:06:40.410Z,14.40
2023-05-24T21:09:08.889Z,14.40
2023-05-24T21:11:37.278Z,14.40
2023-05-24T21:14:06.238Z,14.40
2023-05-24T21:16:36.530Z,14.40
2023-05-24T21:19:05.085Z,14.40
2023-05-24T21:21:33.420Z,14.40
2023-05-24T21:24:01.873Z,14.40
2023-05-24T21:26:30.116Z,14.40
2023-05-24T21:28:58.291Z,14.50
2023-05-24T21:31:28.464Z,14.40
2023-05-24T21:33:59.660Z,14.40
2023-05-24T21:36:27.977Z,14.50
2023-05-24T21:38:57.039Z,14.40
2023-05-24T21:41:25.413Z,14.40
2023-05-24T21:43:53.727Z,14.40
2023-05-24T21:46:22.182Z,14.30
2023-05-24T21:48:50.470Z,14.30
2023-05-24T21:51:20.456Z,14.30
2023-05-24T21:53:48.925Z,14.20
2023-05-24T21:56:17.194Z,14.20
2023-05-24T21:58:45.550Z,14.20
2023-05-24T22:01:13.987Z,14.20
2023-05-24T22:03:42.392Z,14.20
2023-05-24T22:06:10.897Z,14.10
2023-05-24T22:08:40.899Z,14.20
2023-05-24T22:11:09.204Z,14.10
2023-05-24T22:13:37.420Z,14.10
2023-05-24T22:16:06.754Z,14.10
2023-05-24T22:18:35.005Z,14.00
2023-05-24T22:21:03.629Z,14.10
2023-05-24T22:23:31.919Z,14.00
2023-05-24T22:26:01.825Z,14.00
2023-05-24T22:28:30.239Z,14.00
2023-05-24T22:30:59.101Z,14.00
2023-05-24T22:33:27.346Z,14.00
2023-05-24T22:35:55.644Z,14.00
2023-05-24T22:38:23.847Z,14.00
2023-05-24T22:40:52.310Z,14.00
2023-05-24T22:43:21.936Z,14.10
2023-05-24T22:45:50.123Z,14.10
2023-05-24T22:48:18.391Z,14.10
2023-05-24T22:50:46.825Z,14.10
2023-05-24T22:53:17.281Z,14.10
2023-05-24T22:55:46.034Z,14.20
2023-05-24T22:58:15.586Z,14.10
2023-05-24T23:00:45.374Z,14.20
2023-05-24T23:03:13.663Z,14.20
2023-05-24T23:05:42.444Z,14.20
2023-05-24T23:08:13.240Z,14.20
2023-05-24T23:10:45.548Z,14.20
2023-05-24T23:13:14.856Z,14.20
2023-05-24T23:15:45.194Z,14.20
2023-05-24T23:18:16.108Z,14.20
2023-05-24T23:20:45.239Z,14.20
2023-05-24T23:23:13.722Z,14.20
2023-05-24T23:25:43.433Z,14.10
2023-05-24T23:28:11.989Z,14.10
2023-05-24T23:30:40.237Z,14.10
2023-05-24T23:33:09.969Z,14.00
2023-05-24T23:35:39.552Z,14.00
2023-05-24T23:38:07.954Z,14.00
2023-05-24T23:40:36.758Z,13.90
2023-05-24T23:43:05.420Z,13.90
2023-05-24T23:45:33.739Z,13.90
2023-05-24T23:48:02.371Z,13.80
2023-05-24T23:50:37.468Z,13.80
2023-05-24T23:53:14.785Z,13.80
2023-05-24T23:55:43.486Z,13.80
2023-05-24T23:58:12.193Z,13.70
